createdAt,value
2022-12-09T00:00:38.660Z,20.20
2022-12-09T00:03:25.853Z,40.37
2022-12-09T00:06:17.632Z,43.33
2022-12-09T00:09:05.341Z,16.83
2022-12-09T00:11:53.976Z,10.63
2022-12-09T00:14:41.061Z,10.80
2022-12-09T00:17:28.648Z,12.23
2022-12-09T00:20:15.669Z,11.40
2022-12-09T00:23:03.128Z,8.43
2022-12-09T00:25:50.846Z,6.20
2022-12-09T00:28:39.507Z,10.97
2022-12-09T00:31:29.272Z,8.47
2022-12-09T00:34:16.177Z,6.83
2022-12-09T00:37:04.062Z,8.53
2022-12-09T00:39:51.454Z,17.10
2022-12-09T00:42:38.704Z,9.87
2022-12-09T00:45:27.107Z,11.70
2022-12-09T00:48:14.278Z,9.67
2022-12-09T00:51:01.147Z,11.30
2022-12-09T00:53:48.682Z,10.70
2022-12-09T00:56:36.028Z,10.77
2022-12-09T00:59:23.606Z,11.27
2022-12-09T01:02:12.226Z,8.73
2022-12-09T01:04:59.590Z,9.17
2022-12-09T01:07:46.528Z,12.30
2022-12-09T01:10:35.300Z,8.97
2022-12-09T01:13:22.242Z,11.43
2022-12-09T01:16:16.507Z,10.87
2022-12-09T01:19:08.022Z,13.23
2022-12-09T01:21:55.787Z,11.20
2022-12-09T01:24:43.207Z,9.50
2022-12-09T01:27:31.802Z,8.30
2022-12-09T01:30:19.243Z,13.13
2022-12-09T01:33:06.438Z,10.10
2022-12-09T01:35:55.028Z,13.33
2022-12-09T01:38:42.730Z,10.63
2022-12-09T01:41:30.273Z,11.20
2022-12-09T01:44:21.356Z,8.20
2022-12-09T01:47:23.669Z,10.90
2022-12-09T01:50:11.756Z,11.03
2022-12-09T01:53:00.569Z,14.47
2022-12-09T01:55:48.073Z,11.77
2022-12-09T01:58:36.212Z,11.43
2022-12-09T02:01:23.892Z,14.30
2022-12-09T02:04:11.153Z,12.77
2022-12-09T02:06:59.255Z,10.30
2022-12-09T02:09:53.434Z,13.00
2022-12-09T02:12:51.850Z,9.07
2022-12-09T02:15:44.765Z,11.47
2022-12-09T02:18:40.373Z,12.67
2022-12-09T02:21:33.496Z,11.73
2022-12-09T02:24:28.702Z,11.37
2022-12-09T02:27:22.359Z,19.17
2022-12-09T02:30:15.540Z,13.40
2022-12-09T02:33:32.237Z,10.60
2022-12-09T02:36:25.781Z,12.93
2022-12-09T02:39:12.899Z,14.63
2022-12-09T02:42:03.912Z,12.67
2022-12-09T02:44:52.864Z,9.50
2022-12-09T02:47:46.096Z,12.13
2022-12-09T02:50:38.106Z,16.60
2022-12-09T02:53:27.797Z,14.17
2022-12-09T02:56:16.952Z,13.60
2022-12-09T02:59:04.338Z,16.00
2022-12-09T03:02:02.268Z,12.00
2022-12-09T03:05:00.496Z,16.20
2022-12-09T03:07:56.929Z,15.57
2022-12-09T03:10:54.878Z,15.20
2022-12-09T03:13:51.176Z,19.13
2022-12-09T03:16:41.748Z,16.07
2022-12-09T03:19:33.154Z,18.67
2022-12-09T03:22:24.333Z,14.07
2022-12-09T03:25:17.153Z,16.70
2022-12-09T03:28:08.321Z,16.40
2022-12-09T03:31:00.254Z,17.87
2022-12-09T03:33:50.637Z,14.07
2022-12-09T03:36:40.429Z,14.50
2022-12-09T03:39:31.726Z,14.97
2022-12-09T03:42:23.259Z,15.57
2022-12-09T03:45:15.236Z,14.60
2022-12-09T03:48:03.970Z,16.50
2022-12-09T03:50:56.559Z,15.20
2022-12-09T03:53:48.062Z,20.30
2022-12-09T03:56:39.947Z,16.57
2022-12-09T03:59:32.304Z,16.40
2022-12-09T04:02:22.089Z,18.10
2022-12-09T04:05:10.289Z,14.10
2022-12-09T04:07:57.197Z,18.03
2022-12-09T04:10:44.570Z,16.70
2022-12-09T04:13:31.974Z,14.80
2022-12-09T04:16:19.399Z,17.00
2022-12-09T04:19:07.762Z,19.03
2022-12-09T04:21:54.913Z,16.27
2022-12-09T04:24:42.386Z,16.57
2022-12-09T04:27:29.421Z,17.87
2022-12-09T04:30:17.146Z,16.47
2022-12-09T04:33:04.621Z,20.83
2022-12-09T04:35:53.587Z,14.67
2022-12-09T04:38:42.007Z,18.93
2022-12-09T04:41:29.035Z,16.27
2022-12-09T04:44:16.287Z,17.57
2022-12-09T04:47:04.686Z,14.47
2022-12-09T04:49:52.392Z,16.70
2022-12-09T04:52:40.951Z,15.03
2022-12-09T04:55:28.388Z,18.93
2022-12-09T04:58:15.683Z,16.90
2022-12-09T05:01:08.177Z,19.40
2022-12-09T05:03:56.354Z,14.27
2022-12-09T05:06:43.503Z,13.80
2022-12-09T05:09:32.349Z,17.73
2022-12-09T05:12:19.954Z,16.90
2022-12-09T05:15:08.379Z,13.97
2022-12-09T05:17:55.677Z,18.20
2022-12-09T05:20:42.886Z,15.80
2022-12-09T05:23:30.324Z,17.00
2022-12-09T05:26:22.722Z,16.40
2022-12-09T05:29:09.880Z,16.23
2022-12-09T05:31:57.368Z,16.67
2022-12-09T05:34:44.463Z,17.17
2022-12-09T05:37:31.805Z,17.03
2022-12-09T05:40:19.470Z,17.97
2022-12-09T05:43:08.354Z,19.93
2022-12-09T05:45:55.501Z,15.63
2022-12-09T05:48:43.489Z,18.17
2022-12-09T05:51:31.905Z,23.13
2022-12-09T05:54:19.474Z,15.50
2022-12-09T05:57:06.649Z,17.03
2022-12-09T05:59:55.309Z,19.13
2022-12-09T06:02:42.678Z,15.27
2022-12-09T06:05:30.123Z,17.13
2022-12-09T06:08:17.520Z,17.67
2022-12-09T06:11:05.839Z,15.13
2022-12-09T06:13:53.068Z,17.00
2022-12-09T06:16:41.790Z,14.97
2022-12-09T06:19:29.705Z,17.93
2022-12-09T06:22:17.528Z,19.33
2022-12-09T06:25:05.804Z,16.40
2022-12-09T06:27:54.046Z,16.00
2022-12-09T06:30:42.067Z,15.33
2022-12-09T06:33:54.147Z,14.67
2022-12-09T06:36:38.746Z,12.50
2022-12-09T06:39:26.213Z,14.03
2022-12-09T06:42:13.168Z,17.70
2022-12-09T06:45:00.586Z,21.33
2022-12-09T06:47:49.194Z,15.07
2022-12-09T06:50:38.532Z,13.97
2022-12-09T06:53:25.921Z,15.50
2022-12-09T06:56:14.429Z,17.20
2022-12-09T06:59:02.011Z,16.73
2022-12-09T07:01:49.858Z,22.00
2022-12-09T07:04:37.614Z,13.47
2022-12-09T07:07:27.618Z,12.90
2022-12-09T07:10:15.217Z,15.13
2022-12-09T07:13:02.938Z,16.40
2022-12-09T07:15:49.885Z,20.00
2022-12-09T07:18:37.398Z,15.33
2022-12-09T07:21:25.117Z,15.83
2022-12-09T07:24:14.631Z,17.33
2022-12-09T07:27:07.501Z,14.83
2022-12-09T07:29:58.584Z,14.17
2022-12-09T07:32:45.798Z,14.93
2022-12-09T07:35:33.262Z,16.10
2022-12-09T07:38:20.701Z,16.80
2022-12-09T07:41:18.295Z,18.87
2022-12-09T07:44:05.821Z,23.43
2022-12-09T07:46:52.963Z,20.00
2022-12-09T07:49:41.452Z,16.33
2022-12-09T07:52:30.076Z,16.37
2022-12-09T07:55:17.857Z,21.47
2022-12-09T07:58:06.669Z,18.70
2022-12-09T08:00:54.023Z,19.70
2022-12-09T08:03:42.550Z,16.60
2022-12-09T08:06:31.469Z,15.07
2022-12-09T08:09:19.301Z,16.33
2022-12-09T08:12:07.621Z,17.60
2022-12-09T08:14:56.652Z,15.63
2022-12-09T08:17:44.240Z,17.73
2022-12-09T08:20:32.631Z,15.60
2022-12-09T08:23:20.127Z,23.50
2022-12-09T08:26:07.663Z,16.83
2022-12-09T08:28:55.052Z,18.47
2022-12-09T08:31:45.411Z,22.27
2022-12-09T08:34:32.781Z,10.77
2022-12-09T08:37:20.647Z,16.47
2022-12-09T08:40:09.592Z,16.60
2022-12-09T08:42:57.539Z,13.70
2022-12-09T08:45:45.184Z,18.07
2022-12-09T08:48:37.150Z,19.03
2022-12-09T08:51:24.883Z,16.73
2022-12-09T08:54:12.111Z,20.20
2022-12-09T08:57:00.441Z,13.03
2022-12-09T08:59:47.983Z,17.77
2022-12-09T09:02:36.418Z,15.87
2022-12-09T09:05:26.110Z,12.93
2022-12-09T09:08:13.612Z,14.83
2022-12-09T09:11:02.008Z,14.57
2022-12-09T09:13:51.682Z,11.77
2022-12-09T09:16:40.908Z,15.10
2022-12-09T09:19:28.610Z,12.57
2022-12-09T09:22:17.681Z,14.70
2022-12-09T09:25:05.628Z,15.23
2022-12-09T09:27:53.549Z,15.03
2022-12-09T09:30:41.502Z,13.57
2022-12-09T09:33:29.019Z,15.30
2022-12-09T09:36:20.801Z,14.00
2022-12-09T09:39:09.804Z,18.10
2022-12-09T09:42:05.951Z,14.90
2022-12-09T09:44:56.914Z,17.13
2022-12-09T09:47:49.623Z,18.23
2022-12-09T09:50:44.621Z,17.63
2022-12-09T09:53:32.996Z,19.83
2022-12-09T09:56:28.523Z,16.87
2022-12-09T09:59:22.986Z,18.17
2022-12-09T10:02:19.748Z,17.00
2022-12-09T10:05:16.456Z,18.00
2022-12-09T10:08:32.170Z,13.17
2022-12-09T10:11:26.378Z,13.70
2022-12-09T10:14:18.640Z,14.80
2022-12-09T10:17:17.520Z,14.13
2022-12-09T10:20:09.736Z,13.73
2022-12-09T10:23:01.306Z,15.87
2022-12-09T10:25:53.899Z,15.60
2022-12-09T10:28:47.755Z,15.90
2022-12-09T10:31:35.160Z,17.20
2022-12-09T10:34:22.304Z,15.17
2022-12-09T10:37:20.977Z,19.23
2022-12-09T10:40:23.955Z,11.83
2022-12-09T10:43:38.970Z,19.27
2022-12-09T10:46:28.380Z,13.80
2022-12-09T10:49:21.754Z,14.83
2022-12-09T10:52:10.020Z,16.70
2022-12-09T10:54:57.457Z,16.73
2022-12-09T10:57:44.612Z,16.30
2022-12-09T11:00:35.055Z,14.60
2022-12-09T11:03:30.648Z,20.03
2022-12-09T11:06:24.664Z,13.33
2022-12-09T11:09:23.448Z,15.23
2022-12-09T11:12:21.190Z,13.63
2022-12-09T11:15:26.428Z,13.67
2022-12-09T11:18:20.475Z,16.03
2022-12-09T11:21:29.106Z,16.97
2022-12-09T11:24:23.152Z,19.80
2022-12-09T11:27:31.190Z,16.83
2022-12-09T11:30:21.857Z,13.90
2022-12-09T11:33:25.346Z,16.43
2022-12-09T11:36:23.384Z,15.07
2022-12-09T11:39:22.928Z,12.47
2022-12-09T11:42:23.211Z,14.10
2022-12-09T11:45:24.705Z,15.97
2022-12-09T11:48:35.096Z,17.73
2022-12-09T11:51:29.444Z,21.67
2022-12-09T11:54:23.509Z,15.50
2022-12-09T11:57:21.562Z,19.00
2022-12-09T12:00:19.145Z,20.30
2022-12-09T12:03:14.794Z,13.60
2022-12-09T12:06:05.621Z,18.30
2022-12-09T12:08:59.277Z,13.37
2022-12-09T12:11:51.297Z,15.83
2022-12-09T12:14:42.445Z,14.90
2022-12-09T12:17:36.626Z,17.43
2022-12-09T12:20:28.439Z,14.90
2022-12-09T12:23:40.400Z,15.90
2022-12-09T12:26:34.235Z,17.40
2022-12-09T12:29:30.530Z,15.63
2022-12-09T12:32:31.347Z,20.87
2022-12-09T12:35:30.681Z,15.00
2022-12-09T12:38:24.301Z,18.30
2022-12-09T12:41:21.953Z,19.30
2022-12-09T12:44:42.362Z,13.53
2022-12-09T12:47:37.486Z,20.87
2022-12-09T12:50:46.416Z,14.70
2022-12-09T12:53:38.976Z,16.70
2022-12-09T12:56:31.969Z,19.50
2022-12-09T12:59:26.012Z,21.40
2022-12-09T13:02:30.593Z,14.73
2022-12-09T13:05:40.618Z,16.23
2022-12-09T13:08:34.570Z,16.37
2022-12-09T13:11:28.196Z,17.47
2022-12-09T13:14:21.996Z,16.43
2022-12-09T13:17:14.547Z,18.93
2022-12-09T13:20:05.555Z,15.97
2022-12-09T13:23:01.586Z,18.63
2022-12-09T13:25:56.874Z,13.10
2022-12-09T13:28:49.977Z,20.20
2022-12-09T13:31:45.864Z,14.07
2022-12-09T13:34:38.858Z,15.70
2022-12-09T13:37:56.528Z,17.07
2022-12-09T13:40:43.504Z,17.50
2022-12-09T13:43:33.799Z,18.97
2022-12-09T13:46:23.364Z,24.07
2022-12-09T13:49:17.895Z,21.43
2022-12-09T13:52:05.454Z,16.40
2022-12-09T13:54:52.351Z,14.30
2022-12-09T13:57:48.219Z,15.43
2022-12-09T14:00:35.886Z,16.20
2022-12-09T14:03:29.046Z,17.47
2022-12-09T14:06:25.906Z,16.87
2022-12-09T14:09:24.662Z,21.33
2022-12-09T14:12:13.233Z,22.07
2022-12-09T14:15:01.658Z,22.17
2022-12-09T14:18:26.435Z,17.87
2022-12-09T14:21:27.892Z,19.67
2022-12-09T14:24:36.739Z,14.77
2022-12-09T14:27:25.493Z,19.50
2022-12-09T14:30:45.854Z,14.60
2022-12-09T14:33:35.495Z,16.30
2022-12-09T14:36:29.775Z,17.73
2022-12-09T14:39:24.668Z,15.07
2022-12-09T14:42:24.089Z,15.83
2022-12-09T14:45:23.105Z,17.50
2022-12-09T14:48:12.042Z,18.90
2022-12-09T14:51:10.048Z,21.13
2022-12-09T14:54:00.401Z,19.60
2022-12-09T14:56:49.752Z,18.00
2022-12-09T14:59:37.499Z,17.37
2022-12-09T15:02:26.516Z,18.53
2022-12-09T15:05:18.302Z,16.63
2022-12-09T15:08:05.525Z,17.60
2022-12-09T15:10:54.403Z,19.07
2022-12-09T15:13:44.476Z,18.77
2022-12-09T15:16:31.861Z,20.43
2022-12-09T15:19:51.027Z,20.37
2022-12-09T15:22:31.640Z,26.13
2022-12-09T15:25:19.355Z,17.47
2022-12-09T15:28:15.629Z,24.70
2022-12-09T15:31:05.243Z,23.07
2022-12-09T15:33:55.600Z,16.80
2022-12-09T15:36:46.935Z,17.47
2022-12-09T15:39:41.131Z,14.07
2022-12-09T15:42:32.665Z,17.60
2022-12-09T15:45:24.379Z,20.00
2022-12-09T15:48:16.925Z,21.80
2022-12-09T15:51:07.453Z,20.87
2022-12-09T15:53:58.290Z,22.67
2022-12-09T15:56:48.045Z,16.17
2022-12-09T15:59:39.829Z,18.97
2022-12-09T16:02:32.064Z,17.73
2022-12-09T16:05:24.713Z,20.40
2022-12-09T16:08:12.468Z,21.40
2022-12-09T16:10:59.610Z,18.47
2022-12-09T16:13:59.883Z,18.97
2022-12-09T16:16:50.006Z,32.20
2022-12-09T16:19:38.675Z,22.37
2022-12-09T16:22:29.388Z,25.40
2022-12-09T16:25:23.065Z,23.43
2022-12-09T16:28:22.282Z,22.20
2022-12-09T16:31:19.226Z,18.20
2022-12-09T16:34:06.411Z,18.13
2022-12-09T16:36:57.539Z,18.73
2022-12-09T16:39:44.413Z,19.63
2022-12-09T16:42:36.580Z,19.30
2022-12-09T16:45:32.207Z,24.60
2022-12-09T16:48:20.629Z,20.90
2022-12-09T16:51:13.341Z,25.93
2022-12-09T16:54:02.284Z,19.10
2022-12-09T16:56:49.954Z,20.47
2022-12-09T16:59:38.206Z,25.13
2022-12-09T17:02:34.680Z,19.77
2022-12-09T17:05:21.808Z,18.77
2022-12-09T17:08:09.182Z,21.47
2022-12-09T17:10:57.777Z,21.87
2022-12-09T17:13:45.020Z,17.57
2022-12-09T17:16:34.045Z,20.67
2022-12-09T17:19:24.819Z,17.40
2022-12-09T17:22:12.035Z,22.03
2022-12-09T17:24:59.083Z,21.03
2022-12-09T17:27:47.388Z,18.97
2022-12-09T17:30:38.620Z,20.40
2022-12-09T17:33:26.149Z,17.80
2022-12-09T17:36:14.526Z,26.07
2022-12-09T17:39:03.411Z,22.97
2022-12-09T17:41:50.927Z,20.40
2022-12-09T17:44:38.906Z,19.33
2022-12-09T17:47:27.215Z,19.43
2022-12-09T17:50:14.317Z,19.30
2022-12-09T17:53:01.435Z,20.00
2022-12-09T17:55:48.682Z,21.93
2022-12-09T17:58:36.100Z,22.53
2022-12-09T18:01:25.869Z,20.47
2022-12-09T18:04:13.369Z,25.43
2022-12-09T18:07:00.652Z,17.67
2022-12-09T18:09:54.186Z,18.83
2022-12-09T18:12:41.375Z,17.37
2022-12-09T18:15:28.217Z,20.40
2022-12-09T18:18:16.835Z,27.17
2022-12-09T18:21:04.003Z,20.37
2022-12-09T18:23:51.034Z,25.97
2022-12-09T18:26:41.888Z,27.30
2022-12-09T18:29:29.689Z,25.50
2022-12-09T18:32:17.355Z,25.90
2022-12-09T18:35:05.949Z,21.27
2022-12-09T18:37:53.273Z,23.87
2022-12-09T18:41:00.902Z,16.90
2022-12-09T18:43:49.841Z,24.30
2022-12-09T18:46:39.276Z,19.23
2022-12-09T18:49:28.626Z,25.77
2022-12-09T18:52:17.167Z,22.57
2022-12-09T18:55:05.696Z,23.50
2022-12-09T18:57:52.675Z,23.10
2022-12-09T19:00:39.611Z,23.13
2022-12-09T19:03:27.164Z,21.23
2022-12-09T19:06:21.315Z,17.83
2022-12-09T19:09:12.366Z,21.43
2022-12-09T19:12:16.584Z,21.40
2022-12-09T19:15:07.535Z,17.33
2022-12-09T19:17:54.396Z,20.13
2022-12-09T19:20:41.466Z,19.50
2022-12-09T19:23:28.350Z,22.43
2022-12-09T19:26:19.198Z,20.03
2022-12-09T19:29:08.710Z,21.83
2022-12-09T19:31:57.209Z,22.53
2022-12-09T19:34:44.475Z,23.03
2022-12-09T19:37:31.941Z,21.70
2022-12-09T19:40:19.208Z,22.93
2022-12-09T19:43:07.489Z,19.90
2022-12-09T19:45:54.632Z,20.90
2022-12-09T19:48:44.445Z,23.03
2022-12-09T19:51:31.420Z,22.00
2022-12-09T19:54:25.154Z,20.33
2022-12-09T19:57:15.076Z,18.30
2022-12-09T20:00:03.504Z,19.73
2022-12-09T20:02:51.072Z,22.83
2022-12-09T20:05:49.927Z,20.33
2022-12-09T20:08:37.826Z,18.57
2022-12-09T20:11:26.812Z,22.30
2022-12-09T20:14:15.633Z,17.27
2022-12-09T20:17:03.989Z,21.67
2022-12-09T20:19:51.221Z,18.77
2022-12-09T20:22:39.015Z,19.73
2022-12-09T20:25:26.166Z,22.40
2022-12-09T20:28:13.015Z,20.70
2022-12-09T20:31:04.445Z,22.10
2022-12-09T20:33:56.422Z,22.20
2022-12-09T20:36:45.920Z,22.27
2022-12-09T20:39:33.186Z,20.93
2022-12-09T20:42:20.474Z,24.53
2022-12-09T20:45:09.193Z,17.70
2022-12-09T20:47:56.622Z,16.07
2022-12-09T20:50:45.712Z,20.40
2022-12-09T20:53:32.896Z,25.43
2022-12-09T20:56:21.277Z,21.47
2022-12-09T20:59:10.061Z,19.67
2022-12-09T21:01:58.305Z,22.23
2022-12-09T21:04:46.112Z,23.73
2022-12-09T21:07:35.610Z,21.63
2022-12-09T21:10:25.412Z,26.63
2022-12-09T21:13:14.885Z,25.50
2022-12-09T21:16:06.970Z,23.10
2022-12-09T21:18:56.874Z,15.53
2022-12-09T21:21:47.083Z,27.40
2022-12-09T21:24:35.596Z,27.43
2022-12-09T21:27:23.076Z,25.60
2022-12-09T21:30:11.153Z,21.37
2022-12-09T21:32:58.565Z,19.00
2022-12-09T21:35:47.836Z,22.57
2022-12-09T21:38:35.270Z,19.67
2022-12-09T21:41:26.205Z,22.10
2022-12-09T21:44:16.963Z,23.67
2022-12-09T21:47:04.381Z,17.30
2022-12-09T21:49:51.953Z,23.07
2022-12-09T21:52:39.188Z,20.73
2022-12-09T21:55:26.453Z,25.27
2022-12-09T21:58:15.099Z,17.00
2022-12-09T22:01:09.687Z,19.50
2022-12-09T22:03:57.851Z,22.13
2022-12-09T22:06:47.332Z,21.13
2022-12-09T22:09:34.289Z,21.93
2022-12-09T22:12:21.257Z,19.80
2022-12-09T22:15:12.245Z,25.20
2022-12-09T22:18:00.042Z,17.00
2022-12-09T22:21:23.193Z,22.40
2022-12-09T22:23:57.072Z,18.47
2022-12-09T22:26:45.289Z,17.70
2022-12-09T22:29:32.509Z,22.80
2022-12-09T22:32:21.421Z,19.13
2022-12-09T22:35:09.219Z,20.73
2022-12-09T22:37:59.070Z,20.27
2022-12-09T22:40:46.387Z,20.63
2022-12-09T22:43:37.889Z,25.33
2022-12-09T22:46:28.279Z,18.17
2022-12-09T22:49:17.740Z,25.47
2022-12-09T22:52:05.745Z,22.87
2022-12-09T22:54:52.740Z,24.43
2022-12-09T22:57:39.626Z,24.30
2022-12-09T23:00:26.660Z,33.63
2022-12-09T23:03:13.722Z,20.37
2022-12-09T23:06:03.911Z,26.17
2022-12-09T23:08:51.284Z,27.20
2022-12-09T23:11:38.614Z,29.83
2022-12-09T23:14:25.603Z,21.13
2022-12-09T23:17:13.030Z,23.73
2022-12-09T23:20:00.780Z,24.03
2022-12-09T23:22:49.728Z,23.43
2022-12-09T23:25:36.825Z,27.30
2022-12-09T23:28:23.635Z,22.90
2022-12-09T23:31:12.123Z,27.43
2022-12-09T23:33:59.922Z,28.03
2022-12-09T23:36:47.356Z,21.90
2022-12-09T23:39:36.416Z,27.00
2022-12-09T23:42:23.608Z,22.27
2022-12-09T23:45:11.706Z,28.33
2022-12-09T23:47:58.908Z,22.73
2022-12-09T23:50:45.986Z,27.17
2022-12-09T23:53:33.025Z,30.27
2022-12-09T23:56:23.963Z,20.80
2022-12-09T23:59:15.774Z,23.63
